Startpagina
METAR-TAF:

METAR-TAF

Vliegvelden :

Žilina, Slowakije

breedte: 49-14N, lengte: 018-36-49E, hoogte: 312 m

Actueel weer

Dit bericht is 34 minuten geleden gemaakt, om 13:30 UTC
Wind 11 kt uit het westzuidwesten
Temperatuur 6°C
Vochtigheid 70%
Druk 995 hPa
Zicht 10 km of meer
Verspreide wolken op 3000 ft
Gebroken wolken op 3900 ft

METAR: LZZI 261330Z 24011KT 9999 SCT030 BKN039 06/01 Q0995

Tijdstip: 15:04 (14:04 UTC)

Verwachting

Dit bericht is 3 uur en het 4 minuten geleden gemaakt, om 11:00 UTC
Verwachting geldig van 26 om 12 UTC tot 26 om 21 UTC
Wind 8 kt uit het westzuidwesten
Zicht 10 km of meer
Verspreide wolken op 3000 ft
Gebroken wolken op 8000 ft
Tijdelijke
van 26 om 12 UTC tot 26 om 16 UTC
Wind 15 kt uit het westen met uitschieters tot 25 kt
Zicht: 5000 m
Verspreide wolken op 1200 ft
Verspreide wolken op 2000 ft, Stapelwolken.
Gebroken wolken op 2700 ft
regenbuien

TAF: LZZI 261100Z 2612/2621 25008KT 9999 SCT030 BKN080 TEMPO 2612/2616 26015G25KT 5000 SHRA SCT012 SCT020TCU BKN027

Waarnemingen en weersverwachtingen van meer dan 4000 vliegvelden (METAR en TAF).

De beschikbare stations zijn de gele en rode punten op de kaart.

Ga met uw muis naar het station om de naam te zien.

Klik dan om waarnemingen en weersverwachtingen te zien.

kaart wijzigen: klik op de groene knoppen met een zwart kruis om in te zoomen, op de groene knop met een streepje om uit te zoomen of op de groene pijlen voor aangrenzende kaarten.


METAR-TAF: